Fairplay, CO (80440)

4:52 AM MDT on September 01, 2015 (GMT -0600)
Foxtail Pines | | Change Station
CLOSE
Current Station
Personal Weather Station
Location: Fairplay, CO
Elevation: 10240 ft
Nearby Weather Stations

Elev 10240 ft 39.20 °N, 106.04 °W | Updated 31 seconds ago

Partly Cloudy
Partly Cloudy
35.2 °F
Feels Like 35 °F
N
0.0
Wind Variable Wind from NW
Gusts 0.0 mph

Today
High -- | Low -- °F
--% Chance of Precip.
Yesterday
High -- | Low -- °F
Precip. -- in
6:32 AM 7:34 PM
Waning Gibbous, 90% visible
Pressure 30.03 in
Visibility 10.0 miles
Clouds Clear
Windchill 35 °F
Dew Point 32 °F
Humidity 89%
Rainfall 0.00 in
Snow Depth Not available.
UV 0.0 out of 12
Pollen 10.10 out of 12
Air Quality Not available.
Flu Activity Not available.
METAR KLXV 010953Z AUTO 05005KT 10SM CLR 02/01 A3044 RMK AO2 SLP169 T00220011
Pressure 30.03 in
Visibility 10.0 miles
Clouds Clear
Windchill 35 °F
Dew Point 32 °F
Humidity 89%
Rainfall 0.00 in
Snow Depth Not available.
UV 0.0 out of 12
Pollen 10.10 out of 12
Air Quality Not available.
Flu Activity Not available.
METAR KLXV 010953Z AUTO 05005KT 10SM CLR 02/01 A3044 RMK AO2 SLP169 T00220011

10-Day Weather Forecast

×

Almanac

Astronomy

Sep. 01, 2015 Rise Set
Actual Time
Civil Twilight
Nautical Twilight
Astronomical Twilight
Moon
Length of Visible Light
Length of Day
Tomorrow will be .
, % of the Moon is Illuminated

Today's Extremes

State Highs State Lows

Community

WunderPhotos

Upload Photos

1,851,501 photos uploaded!

WunderBlogs® & News

Nearby

Air Quality

  Air Quality AQ Index Pollutant
Not available.

Snow Depth

Station Depth Elevation

Earthquake Activity

City Distance Mag. Time & Date
Minimum magnitude displayed is 2.5.

Coastal Water Temperatures

Place Temperature

Stations

Nearby Weather Stations

Station Location Temp. Windchill Dew Point Humidity Wind Precip. Elev Updated Type